Terminal Aerodrome Forecast
Issued by NWS

Home | Current Version | Previous Version | Text Only | Print | Product List | Glossary On
Versions: 1 2 3 4 5 6 7 8 9 10 11 12
000
FTUS45 KABQ 111139
TAFAEG
TAF
KAEG 111139Z 1112/1212 27010KT P6SM SCT200
     FM111700 29011KT P6SM VCSH SCT020 BKN040
      TEMPO 1117/1120 29013G23KT
     FM112000 30013G23KT P6SM SCT040
     FM112300 32011KT P6SM SCT040
     FM120300 31005KT P6SM SCT200=

USA.gov is the U.S. government's official web portal to all federal, state and local government web resources and services.